Finlandia — OJPP — position and weather

sailwx.info

Track history (hours):
 
Tides and Currents Weather Stations Pressure Air Temp Water Temp Dewpoint Dewpoint Depression Visibility Wind Speed Wind Dir Waves Ship Positions

Finlandia

Last reported at 2017-Feb-20 10:29 UTC. Time now 2017-Feb-20 11:17 UTC.
Position N 59°31' E 024°45'.

Length 175 m; draft 7 m.

Type: Passenger vessel. MMSI: 230628000.

Date/timePositionNaut miles runAvg speedWind from/ knotsBaromVisibWave heightAir tempDewpointWater temp
2017-Feb-20 10:29N 59°31' E 024°45'0 0.0
2017-Feb-19 17:03N 59°32' E 024°45'5 8.6
2017-Feb-19 16:29N 59°27' E 024°46'0 0.2
2017-Feb-19 15:33N 59°27' E 024°46'3 0.5
2017-Feb-19 10:07N 59°30' E 024°46'3 0.1
2017-Feb-18 15:33N 59°27' E 024°46'2 0.4
2017-Feb-18 10:05N 59°29' E 024°46'2 0.1
2017-Feb-17 22:28N 59°27' E 024°47'21 0.9
2017-Feb-16 21:24N 59°49' E 024°51'1821.1
2017-Feb-16 20:32N 60°07' E 024°54'6 3.0
2017-Feb-16 18:27N 60°01' E 024°55'29 9.5
2017-Feb-16 15:22N 59°32' E 024°43'2425.4
2017-Feb-16 14:26N 59°55' E 024°52'14 6.3
2017-Feb-16 12:14N 60°09' E 024°55'1317.8
2017-Feb-16 11:29N 59°56' E 024°52'2220.1
2017-Feb-16 10:22N 59°34' E 024°43'2 1.1
2017-Feb-16 08:29N 59°32' E 024°43'2519.4
2017-Feb-16 07:12N 59°56' E 024°53'4 1.1
2017-Feb-16 03:22N 59°52' E 024°51'23 4.8
2017-Feb-15 22:33N 59°29' E 024°45'1917.1
2017-Feb-15 21:28N 59°48' E 024°48'2116.9
2017-Feb-15 20:13N 60°09' E 024°55'10 5.5
2017-Feb-15 18:28N 59°59' E 024°54'2224.1
2017-Feb-15 17:33N 59°38' E 024°40'6 2.9
2017-Feb-15 15:24N 59°32' E 024°43'4 0.1
2017-Feb-14 10:13N 59°29' E 024°47'1 0.0
2017-Feb-13 10:14N 59°28' E 024°47'2 0.1
2017-Feb-12 15:33N 59°27' E 024°46'3 0.5
2017-Feb-12 10:13N 59°29' E 024°46'3 2.9
2017-Feb-12 09:16N 59°27' E 024°46'2914.4
2017-Feb-12 07:16N 59°55' E 024°52'6 0.5
2017-Feb-11 18:33N 60°01' E 024°54'3511.4
2017-Feb-11 15:32N 59°27' E 024°47'2120.2
2017-Feb-11 14:29N 59°48' E 024°50'2021.8
2017-Feb-11 13:33N 60°09' E 024°54'3911.3
2017-Feb-11 10:07N 59°30' E 024°46'3 5.9
2017-Feb-11 09:33N 59°27' E 024°46'5 0.5
2017-Feb-11 00:07N 59°31' E 024°45'4 6.9
2017-Feb-10 23:30N 59°27' E 024°47'0 0.0
2017-Feb-10 15:31N 59°27' E 024°47'  
Track history (hours):
 
Tides and Currents Weather Stations Pressure Air Temp Water Temp Dewpoint Dewpoint Depression Visibility Wind Speed Wind Dir Waves Ship Positions

Finlandia

Last reported at 2017-Feb-20 10:29 UTC. Time now 2017-Feb-20 11:17 UTC.
Position N 59°31' E 024°45'.

Length 175 m; draft 7 m.

Type: Passenger vessel. MMSI: 230628000.

Date/timePositionNaut miles runAvg speedWind from/ knotsBaromVisibWave heightAir tempDewpointWater temp
2017-Feb-20 10:29N 59°31' E 024°45'0 0.0
2017-Feb-19 17:03N 59°32' E 024°45'5 8.6
2017-Feb-19 16:29N 59°27' E 024°46'0 0.2
2017-Feb-19 15:33N 59°27' E 024°46'3 0.5
2017-Feb-19 10:07N 59°30' E 024°46'3 0.1
2017-Feb-18 15:33N 59°27' E 024°46'2 0.4
2017-Feb-18 10:05N 59°29' E 024°46'2 0.1
2017-Feb-17 22:28N 59°27' E 024°47'21 0.9
2017-Feb-16 21:24N 59°49' E 024°51'1821.1
2017-Feb-16 20:32N 60°07' E 024°54'6 3.0
2017-Feb-16 18:27N 60°01' E 024°55'29 9.5
2017-Feb-16 15:22N 59°32' E 024°43'2425.4
2017-Feb-16 14:26N 59°55' E 024°52'14 6.3
2017-Feb-16 12:14N 60°09' E 024°55'1317.8
2017-Feb-16 11:29N 59°56' E 024°52'2220.1
2017-Feb-16 10:22N 59°34' E 024°43'2 1.1
2017-Feb-16 08:29N 59°32' E 024°43'2519.4
2017-Feb-16 07:12N 59°56' E 024°53'4 1.1
2017-Feb-16 03:22N 59°52' E 024°51'23 4.8
2017-Feb-15 22:33N 59°29' E 024°45'1917.1
2017-Feb-15 21:28N 59°48' E 024°48'2116.9
2017-Feb-15 20:13N 60°09' E 024°55'10 5.5
2017-Feb-15 18:28N 59°59' E 024°54'2224.1
2017-Feb-15 17:33N 59°38' E 024°40'6 2.9
2017-Feb-15 15:24N 59°32' E 024°43'4 0.1
2017-Feb-14 10:13N 59°29' E 024°47'1 0.0
2017-Feb-13 10:14N 59°28' E 024°47'2 0.1
2017-Feb-12 15:33N 59°27' E 024°46'3 0.5
2017-Feb-12 10:13N 59°29' E 024°46'3 2.9
2017-Feb-12 09:16N 59°27' E 024°46'2914.4
2017-Feb-12 07:16N 59°55' E 024°52'6 0.5
2017-Feb-11 18:33N 60°01' E 024°54'3511.4
2017-Feb-11 15:32N 59°27' E 024°47'2120.2
2017-Feb-11 14:29N 59°48' E 024°50'2021.8
2017-Feb-11 13:33N 60°09' E 024°54'3911.3
2017-Feb-11 10:07N 59°30' E 024°46'3 5.9
2017-Feb-11 09:33N 59°27' E 024°46'5 0.5
2017-Feb-11 00:07N 59°31' E 024°45'4 6.9
2017-Feb-10 23:30N 59°27' E 024°47'0 0.0
2017-Feb-10 15:31N 59°27' E 024°47'  

Dump ship's entire track history